Time;durP1;ratioP1;P1;durP2;ratioP2;P2;SDS_P1;SDS_P2;PMS_P1;PMS_P2;Temp;Humidity;BMP_temperature;BMP_pressure;BME280_temperature;BME280_humidity;BME280_pressure;Samples;Min_cycle;Max_cycle;Signal;HPM_P1;HPM_P2
2022/04/10 08:42:47;;;;;;;;;0.75;0.75;;;;;;;;1579592;27;83533;-63
2022/04/10 08:43:32;;;;;;;;;1.00;1.00;;;;;;;;1571277;27;83409;-69
2022/04/10 08:44:17;;;;;;;;;3.00;3.00;;;;;;;;1567365;27;83712;-68
2022/04/10 08:45:03;;;;;;;;;2.00;2.00;;;;;;;;1565873;27;83537;-70
2022/04/10 08:45:49;;;;;;;;;4.00;4.00;;;;;;;;1563534;27;83814;-71
2022/04/10 08:46:35;;;;;;;;;2.00;2.00;;;;;;;;1563147;27;83388;-73
2022/04/10 08:47:21;;;;;;;;;3.00;3.00;;;;;;;;1570193;27;83304;-71
2022/04/10 08:48:06;;;;;;;;;0.00;0.00;;;;;;;;1564272;27;83444;-69
2022/04/10 08:48:52;;;;;;;;;2.33;2.33;;;;;;;;1565665;27;83562;-71
2022/04/10 08:49:38;;;;;;;;;4.00;4.00;;;;;;;;1565777;27;83301;-72
2022/04/10 08:50:24;;;;;;;;;3.00;3.00;;;;;;;;1566670;27;84843;-71
2022/04/10 08:51:09;;;;;;;;;2.50;2.50;;;;;;;;1569422;27;83316;-69
2022/04/10 08:51:56;;;;;;;;;5.00;5.00;;;;;;;;1571861;27;83536;-68
2022/04/10 08:52:42;;;;;;;;;1.80;1.80;;;;;;;;1572002;27;83614;-68
2022/04/10 08:53:27;;;;;;;;;2.00;2.00;;;;;;;;1572100;27;83358;-68
2022/04/10 08:54:13;;;;;;;;;3.00;3.00;;;;;;;;1572201;27;83173;-68
2022/04/10 08:54:58;;;;;;;;;2.50;2.50;;;;;;;;1572160;27;83321;-68
2022/04/10 08:55:43;;;;;;;;;3.00;3.00;;;;;;;;1571510;27;83475;-68
2022/04/10 08:56:29;;;;;;;;;2.00;2.00;;;;;;;;1572147;27;83506;-68
2022/04/10 08:57:14;;;;;;;;;3.00;3.00;;;;;;;;1572166;27;83571;-68
2022/04/10 08:58:02;;;;;;;;;2.75;2.75;;;;;;;;1572202;27;83231;-68
2022/04/10 08:58:48;;;;;;;;;2.60;2.60;;;;;;;;1571447;27;85882;-69
2022/04/10 08:59:33;;;;;;;;;3.00;3.00;;;;;;;;1571625;27;83548;-69
2022/04/10 09:00:19;;;;;;;;;2.25;2.25;;;;;;;;1571191;27;83448;-73
2022/04/10 09:01:04;;;;;;;;;2.20;2.20;;;;;;;;1565211;27;83390;-73
2022/04/10 09:01:53;;;;;;;;;2.25;2.25;;;;;;;;1565741;27;83276;-73
2022/04/10 09:02:45;;;;;;;;;2.40;2.40;;;;;;;;1565676;27;83452;-73
2022/04/10 09:03:31;;;;;;;;;4.00;4.00;;;;;;;;1565847;27;83794;-73
2022/04/10 09:04:16;;;;;;;;;2.75;2.75;;;;;;;;1568702;27;83408;-71
2022/04/10 09:05:01;;;;;;;;;2.00;2.00;;;;;;;;1565946;27;83319;-72
2022/04/10 09:06:00;;;;;;;;;3.00;3.00;;;;;;;;1566472;27;84024;-72
2022/04/10 09:06:55;;;;;;;;;2.20;2.20;;;;;;;;1565715;27;83752;-72
2022/04/10 09:08:00;;;;;;;;;2.40;2.40;;;;;;;;1565723;27;83987;-72
2022/04/10 09:08:46;;;;;;;;;4.20;4.20;;;;;;;;1567818;27;84075;-73
2022/04/10 09:09:31;;;;;;;;;2.75;2.75;;;;;;;;1568587;27;83628;-73
2022/04/10 09:10:18;;;;;;;;;0.25;0.25;;;;;;;;1569573;27;83553;-74
2022/04/10 09:11:08;;;;;;;;;3.00;3.00;;;;;;;;1571427;27;83201;-73
2022/04/10 09:11:53;;;;;;;;;2.80;2.80;;;;;;;;1571776;27;85107;-74
2022/04/10 09:12:44;;;;;;;;;2.00;2.00;;;;;;;;1571532;27;84214;-74
2022/04/10 09:13:29;;;;;;;;;1.60;1.60;;;;;;;;1571789;27;83896;-73
2022/04/10 09:14:24;;;;;;;;;1.25;1.25;;;;;;;;1572027;27;83900;-74
2022/04/10 09:15:09;;;;;;;;;0.80;0.80;;;;;;;;1570823;27;84035;-73
2022/04/10 09:16:11;;;;;;;;;1.00;1.00;;;;;;;;1566755;27;84306;-74
2022/04/10 09:17:12;;;;;;;;;1.40;1.40;;;;;;;;1565761;27;83959;-73
2022/04/10 09:17:57;;;;;;;;;1.20;1.20;;;;;;;;1565674;27;85134;-74
2022/04/10 09:18:47;;;;;;;;;1.00;1.00;;;;;;;;1565642;27;83730;-74
2022/04/10 09:19:39;;;;;;;;;1.80;1.80;;;;;;;;1565626;27;83831;-74
2022/04/10 09:20:24;;;;;;;;;2.00;2.00;;;;;;;;1566105;27;84008;-74
2022/04/10 09:21:09;;;;;;;;;1.00;1.00;;;;;;;;1565739;27;83715;-74
2022/04/10 09:21:54;;;;;;;;;3.00;2.00;;;;;;;;1565671;27;83902;-73
2022/04/10 09:22:40;;;;;;;;;2.00;2.00;;;;;;;;1565583;27;83907;-74
2022/04/10 09:23:25;;;;;;;;;2.50;2.50;;;;;;;;1565530;27;84037;-73
2022/04/10 09:24:11;;;;;;;;;2.75;2.75;;;;;;;;1565731;27;84105;-74
2022/04/10 09:25:03;;;;;;;;;0.40;0.40;;;;;;;;1565738;27;84021;-74
2022/04/10 09:25:48;;;;;;;;;1.00;1.00;;;;;;;;1565628;27;83987;-73
2022/04/10 09:26:44;;;;;;;;;2.00;2.00;;;;;;;;1565363;27;85875;-73
2022/04/10 09:27:31;;;;;;;;;0.00;0.00;;;;;;;;1565167;27;83992;-73
2022/04/10 09:28:16;;;;;;;;;2.00;2.00;;;;;;;;1568010;27;83276;-73
2022/04/10 09:29:03;;;;;;;;;1.25;1.25;;;;;;;;1565770;27;83197;-73
2022/04/10 09:29:51;;;;;;;;;1.00;1.00;;;;;;;;1565368;27;83503;-74
2022/04/10 09:30:36;;;;;;;;;1.40;1.40;;;;;;;;1565921;27;83492;-73
2022/04/10 09:31:28;;;;;;;;;1.00;1.00;;;;;;;;1565527;27;83487;-73
2022/04/10 09:32:14;;;;;;;;;1.00;1.00;;;;;;;;1565674;27;83125;-73
2022/04/10 09:32:59;;;;;;;;;1.00;1.00;;;;;;;;1565664;27;83197;-74
2022/04/10 09:33:47;;;;;;;;;0.75;0.75;;;;;;;;1565612;27;83366;-74
2022/04/10 09:34:33;;;;;;;;;1.20;1.20;;;;;;;;1565576;27;83179;-73
2022/04/10 09:35:23;;;;;;;;;1.80;1.80;;;;;;;;1566152;27;83257;-73
2022/04/10 09:36:08;;;;;;;;;0.20;0.20;;;;;;;;1565734;27;83682;-73
2022/04/10 09:37:06;;;;;;;;;1.00;1.00;;;;;;;;1565656;27;83419;-73
2022/04/10 09:37:57;;;;;;;;;0.00;0.00;;;;;;;;1565717;27;83608;-73
2022/04/10 09:38:43;;;;;;;;;1.00;1.00;;;;;;;;1565476;27;83448;-74
2022/04/10 09:39:35;;;;;;;;;1.60;1.60;;;;;;;;1565026;27;83449;-73
2022/04/10 09:40:22;;;;;;;;;1.40;1.40;;;;;;;;1565515;27;83355;-74
2022/04/10 09:41:19;;;;;;;;;0.80;0.80;;;;;;;;1565723;27;83312;-73
2022/04/10 09:42:09;;;;;;;;;0.00;0.00;;;;;;;;1565455;27;83357;-73
2022/04/10 09:42:57;;;;;;;;;0.00;0.00;;;;;;;;1571453;27;83490;-73
2022/04/10 09:43:43;;;;;;;;;0.80;0.80;;;;;;;;1571933;27;83489;-73
2022/04/10 09:44:31;;;;;;;;;0.50;0.50;;;;;;;;1571545;27;83575;-74
2022/04/10 09:45:35;;;;;;;;;0.40;0.40;;;;;;;;1568235;27;83269;-74
2022/04/10 09:46:20;;;;;;;;;0.00;0.00;;;;;;;;1565581;27;83374;-73
2022/04/10 09:47:09;;;;;;;;;2.00;2.00;;;;;;;;1565727;27;83288;-73
2022/04/10 09:47:54;;;;;;;;;0.00;0.00;;;;;;;;1565511;27;83545;-74
2022/04/10 09:48:39;;;;;;;;;1.50;1.50;;;;;;;;1565491;27;83620;-73
2022/04/10 09:49:29;;;;;;;;;0.00;0.00;;;;;;;;1565538;27;83305;-73
2022/04/10 09:50:14;;;;;;;;;1.00;1.00;;;;;;;;1567163;27;83179;-73
2022/04/10 09:51:00;;;;;;;;;0.50;0.50;;;;;;;;1574707;27;83294;-73
2022/04/10 09:52:01;;;;;;;;;0.40;0.40;;;;;;;;1571803;27;83528;-73
2022/04/10 09:52:46;;;;;;;;;1.80;1.80;;;;;;;;1571856;27;83009;-73
2022/04/10 09:53:32;;;;;;;;;0.50;0.50;;;;;;;;1571546;27;83424;-73
2022/04/10 09:54:17;;;;;;;;;0.60;0.60;;;;;;;;1567118;27;83435;-73
2022/04/10 09:55:04;;;;;;;;;1.25;1.25;;;;;;;;1567733;27;83513;-73
2022/04/10 09:55:53;;;;;;;;;1.00;1.00;;;;;;;;1567559;27;83476;-73
2022/04/10 09:56:40;;;;;;;;;0.20;0.20;;;;;;;;1567505;27;83342;-73
2022/04/10 09:57:26;;;;;;;;;1.00;1.00;;;;;;;;1567490;27;83632;-73
2022/04/10 09:58:13;;;;;;;;;1.00;1.00;;;;;;;;1567743;27;83886;-73
2022/04/10 09:59:00;;;;;;;;;0.40;0.40;;;;;;;;1567351;27;83452;-73
2022/04/10 09:59:49;;;;;;;;;0.60;0.60;;;;;;;;1566193;27;83522;-73
2022/04/10 10:00:36;;;;;;;;;0.20;0.20;;;;;;;;1560591;27;84908;-73
2022/04/10 10:01:22;;;;;;;;;2.20;2.20;;;;;;;;1560828;28;83429;-73
2022/04/10 10:02:07;;;;;;;;;1.00;1.00;;;;;;;;1560800;27;83513;-73
2022/04/10 10:02:53;;;;;;;;;0.00;0.00;;;;;;;;1565233;27;84328;-73
2022/04/10 10:03:38;;;;;;;;;2.00;2.00;;;;;;;;1567403;27;84053;-73
2022/04/10 10:04:24;;;;;;;;;1.00;1.00;;;;;;;;1567435;27;83499;-74
2022/04/10 10:05:09;;;;;;;;;0.00;0.00;;;;;;;;1565112;27;83245;-73
2022/04/10 10:05:55;;;;;;;;;0.50;0.50;;;;;;;;1567252;27;83327;-73
2022/04/10 10:06:40;;;;;;;;;0.25;0.25;;;;;;;;1567438;27;83269;-73
2022/04/10 10:07:26;;;;;;;;;0.00;0.00;;;;;;;;1567391;27;83459;-73
2022/04/10 10:08:11;;;;;;;;;0.00;0.00;;;;;;;;1567338;27;83545;-73
2022/04/10 10:08:57;;;;;;;;;0.00;0.00;;;;;;;;1567359;27;83726;-73
2022/04/10 10:09:43;;;;;;;;;0.00;0.00;;;;;;;;1567458;27;83435;-73
2022/04/10 10:10:32;;;;;;;;;0.00;0.00;;;;;;;;1567293;27;84018;-73
2022/04/10 10:11:17;;;;;;;;;0.00;0.00;;;;;;;;1567351;27;83481;-73
2022/04/10 10:12:03;;;;;;;;;0.00;0.00;;;;;;;;1567479;27;83413;-73
2022/04/10 10:12:48;;;;;;;;;0.00;0.00;;;;;;;;1570060;27;83501;-73
2022/04/10 10:13:34;;;;;;;;;0.00;0.00;;;;;;;;1566782;27;83719;-73
2022/04/10 10:14:19;;;;;;;;;0.00;0.00;;;;;;;;1567347;27;83868;-74
2022/04/10 10:15:05;;;;;;;;;0.00;0.00;;;;;;;;1565531;27;83855;-73
2022/04/10 10:15:51;;;;;;;;;0.00;0.00;;;;;;;;1567281;27;84070;-73
2022/04/10 10:16:36;;;;;;;;;0.25;0.25;;;;;;;;1567307;27;84005;-73
2022/04/10 10:17:21;;;;;;;;;0.00;0.00;;;;;;;;1567364;27;83074;-73
2022/04/10 10:18:08;;;;;;;;;0.00;0.00;;;;;;;;1567467;27;83752;-73
2022/04/10 10:18:53;;;;;;;;;0.00;0.00;;;;;;;;1567350;27;83961;-73
2022/04/10 10:19:41;;;;;;;;;0.00;0.00;;;;;;;;1566203;27;84215;-74
2022/04/10 10:20:27;;;;;;;;;0.00;0.00;;;;;;;;1561003;27;83449;-73
2022/04/10 10:21:14;;;;;;;;;0.00;0.00;;;;;;;;1561096;27;83992;-73
2022/04/10 10:22:00;;;;;;;;;0.00;0.00;;;;;;;;1561094;27;83897;-73
2022/04/10 10:22:45;;;;;;;;;1.00;1.00;;;;;;;;1560999;27;84044;-73
2022/04/10 10:23:33;;;;;;;;;0.00;0.00;;;;;;;;1561024;28;83907;-73
2022/04/10 10:24:20;;;;;;;;;0.00;0.00;;;;;;;;1561096;28;84533;-73
2022/04/10 10:25:08;;;;;;;;;0.00;0.00;;;;;;;;1561205;28;83155;-73
2022/04/10 10:26:12;;;;;;;;;0.00;0.00;;;;;;;;1561015;27;83844;-73
2022/04/10 10:27:13;;;;;;;;;0.00;0.00;;;;;;;;1561106;27;83972;-73
2022/04/10 10:28:17;;;;;;;;;0.20;0.20;;;;;;;;1560530;28;84803;-71
2022/04/10 10:29:10;;;;;;;;;0.20;0.20;;;;;;;;1561110;27;84326;-73
2022/04/10 10:30:02;;;;;;;;;0.00;0.00;;;;;;;;1561644;27;83326;-73
2022/04/10 10:30:47;;;;;;;;;0.00;0.00;;;;;;;;1561021;27;84015;-73
2022/04/10 10:31:41;;;;;;;;;0.00;0.00;;;;;;;;1561017;27;83894;-73
2022/04/10 10:32:26;;;;;;;;;0.00;0.00;;;;;;;;1560898;28;84058;-73
2022/04/10 10:33:21;;;;;;;;;0.00;0.00;;;;;;;;1561074;27;83682;-73
2022/04/10 10:34:08;;;;;;;;;0.00;0.00;;;;;;;;1560950;27;83817;-73
2022/04/10 10:34:53;;;;;;;;;0.80;0.80;;;;;;;;1561847;27;84219;-73
2022/04/10 10:35:40;;;;;;;;;0.00;0.00;;;;;;;;1561036;27;83755;-73
2022/04/10 10:36:26;;;;;;;;;0.00;0.00;;;;;;;;1570786;27;84094;-73
2022/04/10 10:37:14;;;;;;;;;0.00;0.00;;;;;;;;1573671;27;83262;-73
2022/04/10 10:38:02;;;;;;;;;0.20;0.20;;;;;;;;1573524;27;83556;-73
2022/04/10 10:38:52;;;;;;;;;1.00;1.00;;;;;;;;1573505;27;83455;-73
2022/04/10 10:39:49;;;;;;;;;0.00;0.00;;;;;;;;1573614;27;83243;-73
2022/04/10 10:40:34;;;;;;;;;0.00;0.00;;;;;;;;1573497;27;83454;-73
2022/04/10 10:41:19;;;;;;;;;1.00;1.00;;;;;;;;1573647;27;83344;-73
2022/04/10 10:42:12;;;;;;;;;0.00;0.00;;;;;;;;1573117;27;83361;-73
2022/04/10 10:43:01;;;;;;;;;0.00;0.00;;;;;;;;1567078;27;83557;-73
2022/04/10 10:43:47;;;;;;;;;0.00;0.00;;;;;;;;1567263;27;83462;-73
2022/04/10 10:44:32;;;;;;;;;1.00;1.00;;;;;;;;1564182;27;83485;-73
2022/04/10 10:45:33;;;;;;;;;0.00;0.00;;;;;;;;1560969;27;83360;-73
2022/04/10 10:46:26;;;;;;;;;1.00;1.00;;;;;;;;1560859;28;83230;-73
2022/04/10 10:47:19;;;;;;;;;0.60;0.60;;;;;;;;1561022;27;83399;-73
2022/04/10 10:48:23;;;;;;;;;0.00;0.00;;;;;;;;1561035;28;83349;-73
2022/04/10 10:49:11;;;;;;;;;0.20;0.20;;;;;;;;1560961;28;83194;-73
2022/04/10 10:49:57;;;;;;;;;0.00;0.00;;;;;;;;1561662;27;83276;-73
2022/04/10 10:50:42;;;;;;;;;0.00;0.00;;;;;;;;1560398;27;83558;-73
2022/04/10 10:51:30;;;;;;;;;0.00;0.00;;;;;;;;1563542;27;83552;-73
2022/04/10 10:52:16;;;;;;;;;0.00;0.00;;;;;;;;1566912;27;83272;-73
2022/04/10 10:53:05;;;;;;;;;0.00;0.00;;;;;;;;1567256;27;83341;-73
2022/04/10 10:53:55;;;;;;;;;1.40;1.40;;;;;;;;1567144;27;83288;-73
2022/04/10 10:54:45;;;;;;;;;1.40;1.40;;;;;;;;1567087;27;83379;-73
2022/04/10 10:55:42;;;;;;;;;2.00;2.00;;;;;;;;1566825;27;83330;-73
2022/04/10 10:56:29;;;;;;;;;0.00;0.00;;;;;;;;1566802;27;83334;-72
2022/04/10 10:57:22;;;;;;;;;1.00;1.00;;;;;;;;1567188;27;83338;-73
2022/04/10 10:58:07;;;;;;;;;1.00;1.00;;;;;;;;1567191;27;83127;-71
2022/04/10 10:58:54;;;;;;;;;1.00;1.00;;;;;;;;1567191;27;83359;-71
2022/04/10 10:59:39;;;;;;;;;1.00;1.00;;;;;;;;1570811;27;84654;-73
2022/04/10 11:00:25;;;;;;;;;2.00;2.00;;;;;;;;1573591;27;83627;-73
2022/04/10 11:01:20;;;;;;;;;1.00;1.00;;;;;;;;1573612;27;83397;-73
2022/04/10 11:02:08;;;;;;;;;1.00;1.00;;;;;;;;1573519;27;84018;-73
2022/04/10 11:02:54;;;;;;;;;1.00;1.00;;;;;;;;1573329;27;83629;-73
2022/04/10 11:03:58;;;;;;;;;1.00;1.00;;;;;;;;1567508;27;84085;-73
2022/04/10 11:04:47;;;;;;;;;1.80;1.80;;;;;;;;1564123;27;83766;-73
2022/04/10 11:05:34;;;;;;;;;1.00;1.00;;;;;;;;1566450;27;83767;-73
2022/04/10 11:06:20;;;;;;;;;1.20;1.20;;;;;;;;1566030;27;84770;-73
2022/04/10 11:07:13;;;;;;;;;1.20;1.20;;;;;;;;1566778;27;83491;-73
2022/04/10 11:08:07;;;;;;;;;1.20;1.20;;;;;;;;1566802;27;83500;-73
2022/04/10 11:08:52;;;;;;;;;1.80;1.80;;;;;;;;1567118;27;83913;-73
2022/04/10 11:09:48;;;;;;;;;1.00;1.00;;;;;;;;1567099;27;83732;-73
2022/04/10 11:10:52;;;;;;;;;1.00;1.00;;;;;;;;1567042;27;83456;-73
2022/04/10 11:11:38;;;;;;;;;1.00;1.00;;;;;;;;1567003;27;83208;-73
2022/04/10 11:12:29;;;;;;;;;1.00;1.00;;;;;;;;1567034;27;83520;-73
2022/04/10 11:13:14;;;;;;;;;0.60;0.60;;;;;;;;1567097;27;83587;-73
2022/04/10 11:14:00;;;;;;;;;1.00;1.00;;;;;;;;1565042;27;83494;-73
2022/04/10 11:14:48;;;;;;;;;1.00;1.00;;;;;;;;1567039;27;83406;-73
2022/04/10 11:15:44;;;;;;;;;1.60;1.60;;;;;;;;1567054;27;83307;-72
2022/04/10 11:16:29;;;;;;;;;1.00;1.00;;;;;;;;1564709;27;83953;-73
2022/04/10 11:17:15;;;;;;;;;1.00;1.00;;;;;;;;1560912;28;83544;-73
2022/04/10 11:18:23;;;;;;;;;0.80;0.80;;;;;;;;1560723;27;83723;-73
2022/04/10 11:19:09;;;;;;;;;1.00;1.00;;;;;;;;1560643;27;83730;-73
2022/04/10 11:19:55;;;;;;;;;0.25;0.25;;;;;;;;1566488;27;83609;-73
2022/04/10 11:20:52;;;;;;;;;1.00;1.00;;;;;;;;1566534;27;83768;-73
2022/04/10 11:21:43;;;;;;;;;1.00;1.00;;;;;;;;1566950;27;83551;-73
2022/04/10 11:22:33;;;;;;;;;2.00;2.00;;;;;;;;1567102;27;83528;-73
2022/04/10 11:23:18;;;;;;;;;2.00;2.00;;;;;;;;1567131;27;83392;-74
2022/04/10 11:24:03;;;;;;;;;0.50;0.50;;;;;;;;1569890;27;83618;-73
2022/04/10 11:24:52;;;;;;;;;1.00;1.00;;;;;;;;1566963;27;84471;-73
2022/04/10 11:25:47;;;;;;;;;1.00;1.00;;;;;;;;1566740;27;83993;-73
2022/04/10 11:26:42;;;;;;;;;2.80;1.80;;;;;;;;1566994;27;84233;-73
2022/04/10 11:27:40;;;;;;;;;1.00;1.00;;;;;;;;1566983;27;84245;-74
2022/04/10 11:28:25;;;;;;;;;1.00;1.00;;;;;;;;1566843;27;83973;-73
2022/04/10 11:29:11;;;;;;;;;0.00;0.00;;;;;;;;1565099;27;84193;-73
2022/04/10 11:30:02;;;;;;;;;1.00;1.00;;;;;;;;1567016;27;83195;-73
2022/04/10 11:30:48;;;;;;;;;1.00;1.00;;;;;;;;1566954;27;82998;-74
2022/04/10 11:31:33;;;;;;;;;1.80;1.80;;;;;;;;1566907;27;83064;-73
2022/04/10 11:32:18;;;;;;;;;1.00;1.00;;;;;;;;1566982;27;83900;-73
2022/04/10 11:33:05;;;;;;;;;1.00;1.00;;;;;;;;1567005;27;83861;-74
2022/04/10 11:33:51;;;;;;;;;0.80;0.80;;;;;;;;1565385;27;83952;-73
2022/04/10 11:34:39;;;;;;;;;1.00;1.00;;;;;;;;1566177;27;83828;-74
2022/04/10 11:35:26;;;;;;;;;0.00;0.00;;;;;;;;1567001;27;83963;-69
2022/04/10 11:36:15;;;;;;;;;0.00;0.00;;;;;;;;1567023;27;83961;-70
2022/04/10 11:37:01;;;;;;;;;0.00;0.00;;;;;;;;1566966;27;84049;-69
2022/04/10 11:37:48;;;;;;;;;0.00;0.00;;;;;;;;1566996;27;83662;-69
2022/04/10 11:38:33;;;;;;;;;0.00;0.00;;;;;;;;1566879;27;83961;-69
2022/04/10 11:39:25;;;;;;;;;0.00;0.00;;;;;;;;1567071;27;84138;-70
2022/04/10 11:40:10;;;;;;;;;0.40;0.40;;;;;;;;1566690;27;83911;-70
2022/04/10 11:40:56;;;;;;;;;0.00;0.00;;;;;;;;1566927;27;83736;-69
2022/04/10 11:41:42;;;;;;;;;0.00;0.00;;;;;;;;1566991;27;83258;-69
2022/04/10 11:42:31;;;;;;;;;0.00;0.00;;;;;;;;1566821;27;83862;-70
2022/04/10 11:43:17;;;;;;;;;0.40;0.40;;;;;;;;1566605;27;84006;-69
2022/04/10 11:44:04;;;;;;;;;0.00;0.00;;;;;;;;1563967;27;84004;-70
2022/04/10 11:44:50;;;;;;;;;0.00;0.00;;;;;;;;1566947;27;84226;-70
2022/04/10 11:45:35;;;;;;;;;0.00;0.00;;;;;;;;1566922;27;83901;-69
2022/04/10 11:46:21;;;;;;;;;0.25;0.25;;;;;;;;1569809;27;83931;-70
2022/04/10 11:47:08;;;;;;;;;0.75;0.75;;;;;;;;1567011;27;83360;-70
2022/04/10 11:47:54;;;;;;;;;0.00;0.00;;;;;;;;1566732;27;83571;-69
2022/04/10 11:48:39;;;;;;;;;0.00;0.00;;;;;;;;1565543;27;83384;-69
2022/04/10 11:49:24;;;;;;;;;0.00;0.00;;;;;;;;1561639;27;83186;-69
2022/04/10 11:50:13;;;;;;;;;0.50;0.50;;;;;;;;1560698;27;83207;-70
2022/04/10 11:51:07;;;;;;;;;0.20;0.20;;;;;;;;1560583;27;83109;-69
2022/04/10 11:51:56;;;;;;;;;1.00;1.00;;;;;;;;1560479;27;83542;-69
2022/04/10 11:52:54;;;;;;;;;0.60;0.60;;;;;;;;1560426;27;83510;-69
2022/04/10 11:53:39;;;;;;;;;0.00;0.00;;;;;;;;1560619;27;83351;-69
2022/04/10 11:54:28;;;;;;;;;0.00;0.00;;;;;;;;1560368;27;83276;-70
2022/04/10 11:55:13;;;;;;;;;0.00;0.00;;;;;;;;1560704;27;83222;-69
2022/04/10 11:55:59;;;;;;;;;0.00;0.00;;;;;;;;1560525;28;83479;-69
2022/04/10 11:56:44;;;;;;;;;0.00;0.00;;;;;;;;1560666;28;83273;-69
2022/04/10 11:57:29;;;;;;;;;0.00;0.00;;;;;;;;1560640;28;83418;-69
2022/04/10 11:58:16;;;;;;;;;1.00;1.00;;;;;;;;1560590;27;83329;-69
2022/04/10 11:59:01;;;;;;;;;0.00;0.00;;;;;;;;1564869;27;83630;-70
2022/04/10 11:59:46;;;;;;;;;0.00;0.00;;;;;;;;1566902;27;83535;-70
2022/04/10 12:00:32;;;;;;;;;0.25;0.25;;;;;;;;1566918;27;83362;-70
2022/04/10 12:01:20;;;;;;;;;0.00;0.00;;;;;;;;1566974;27;83157;-70
2022/04/10 12:02:12;;;;;;;;;0.20;0.20;;;;;;;;1566728;27;83445;-69
2022/04/10 12:02:57;;;;;;;;;0.00;0.00;;;;;;;;1560475;28;83480;-69
2022/04/10 12:03:43;;;;;;;;;0.00;0.00;;;;;;;;1562620;27;83340;-70
2022/04/10 12:04:29;;;;;;;;;0.00;0.00;;;;;;;;1564619;27;83263;-70
2022/04/10 12:05:14;;;;;;;;;0.60;0.60;;;;;;;;1565468;27;83172;-70
2022/04/10 12:05:59;;;;;;;;;0.00;0.00;;;;;;;;1560607;27;83387;-70
2022/04/10 12:06:45;;;;;;;;;0.00;0.00;;;;;;;;1560522;27;83514;-71
2022/04/10 12:07:31;;;;;;;;;0.00;0.00;;;;;;;;1560509;27;83304;-70
2022/04/10 12:08:16;;;;;;;;;0.00;0.00;;;;;;;;1560693;28;83238;-70
2022/04/10 12:09:01;;;;;;;;;0.00;0.00;;;;;;;;1563048;27;83318;-69
2022/04/10 12:09:48;;;;;;;;;0.00;0.00;;;;;;;;1560558;27;83322;-70
2022/04/10 12:10:34;;;;;;;;;0.00;0.00;;;;;;;;1560488;27;83549;-69
2022/04/10 12:11:19;;;;;;;;;0.00;0.00;;;;;;;;1560728;27;83366;-71
2022/04/10 12:12:04;;;;;;;;;0.00;0.00;;;;;;;;1560437;28;83511;-70
2022/04/10 12:12:50;;;;;;;;;0.00;0.00;;;;;;;;1560552;28;83544;-70
2022/04/10 12:13:38;;;;;;;;;0.00;0.00;;;;;;;;1560515;27;83355;-70
2022/04/10 12:14:24;;;;;;;;;0.00;0.00;;;;;;;;1560652;27;83545;-70
2022/04/10 12:15:16;;;;;;;;;0.00;0.00;;;;;;;;1560517;27;83392;-70
2022/04/10 12:16:08;;;;;;;;;0.00;0.00;;;;;;;;1560492;27;83219;-71
2022/04/10 12:16:54;;;;;;;;;0.00;0.00;;;;;;;;1560387;28;83555;-70
2022/04/10 12:17:39;;;;;;;;;1.00;1.00;;;;;;;;1560319;28;83511;-71
2022/04/10 12:18:24;;;;;;;;;0.00;0.00;;;;;;;;1560624;28;83902;-70
2022/04/10 12:19:09;;;;;;;;;0.00;0.00;;;;;;;;1561848;27;83408;-70
2022/04/10 12:19:55;;;;;;;;;0.25;0.25;;;;;;;;1566751;27;83567;-69
2022/04/10 12:20:44;;;;;;;;;0.00;0.00;;;;;;;;1566882;27;83489;-69
2022/04/10 12:21:29;;;;;;;;;1.00;1.00;;;;;;;;1566771;27;83428;-70
2022/04/10 12:22:19;;;;;;;;;0.00;0.00;;;;;;;;1566850;27;83197;-70
2022/04/10 12:23:15;;;;;;;;;0.00;0.00;;;;;;;;1566764;27;83563;-69
2022/04/10 12:24:04;;;;;;;;;0.00;0.00;;;;;;;;1566399;27;83510;-69
2022/04/10 12:24:49;;;;;;;;;0.20;0.20;;;;;;;;1566729;27;83565;-69
2022/04/10 12:25:35;;;;;;;;;0.50;0.50;;;;;;;;1566893;27;83179;-70
2022/04/10 12:26:21;;;;;;;;;0.00;0.00;;;;;;;;1566785;27;83231;-70
2022/04/10 12:27:08;;;;;;;;;1.00;1.00;;;;;;;;1566851;27;83641;-70
2022/04/10 12:27:53;;;;;;;;;0.00;0.00;;;;;;;;1566800;27;83494;-69
2022/04/10 12:28:39;;;;;;;;;0.00;0.00;;;;;;;;1564181;27;83333;-68
2022/04/10 12:29:27;;;;;;;;;0.00;0.00;;;;;;;;1560557;27;83323;-68
2022/04/10 12:30:14;;;;;;;;;1.00;1.00;;;;;;;;1560535;28;83567;-69
2022/04/10 12:31:03;;;;;;;;;0.20;0.20;;;;;;;;1563116;28;83516;-69
2022/04/10 12:31:49;;;;;;;;;1.00;1.00;;;;;;;;1560444;27;84002;-69
2022/04/10 12:32:34;;;;;;;;;0.50;0.50;;;;;;;;1568452;27;84001;-69
2022/04/10 12:33:20;;;;;;;;;1.00;1.00;;;;;;;;1573131;27;83982;-71
2022/04/10 12:34:05;;;;;;;;;1.00;1.00;;;;;;;;1559952;27;83248;-68
2022/04/10 12:34:53;;;;;;;;;0.00;0.00;;;;;;;;1558994;27;84124;-69
2022/04/10 12:35:39;;;;;;;;;0.00;0.00;;;;;;;;1561442;27;83944;-69
2022/04/10 12:36:24;;;;;;;;;0.20;0.20;;;;;;;;1560478;27;83842;-69
2022/04/10 12:37:11;;;;;;;;;0.00;0.00;;;;;;;;1560768;27;83315;-68
2022/04/10 12:38:01;;;;;;;;;0.00;0.00;;;;;;;;1566326;27;83959;-68
2022/04/10 12:38:50;;;;;;;;;0.20;0.20;;;;;;;;1566628;27;83806;-68
2022/04/10 12:39:35;;;;;;;;;0.60;0.60;;;;;;;;1566640;27;84017;-70
2022/04/10 12:40:29;;;;;;;;;1.00;1.00;;;;;;;;1566829;27;83666;-70
2022/04/10 12:41:15;;;;;;;;;0.00;0.00;;;;;;;;1566782;27;83954;-69
2022/04/10 12:42:01;;;;;;;;;0.50;0.50;;;;;;;;1566500;27;83830;-69
2022/04/10 12:42:47;;;;;;;;;0.00;0.00;;;;;;;;1566543;27;84031;-69
2022/04/10 12:43:32;;;;;;;;;0.00;0.00;;;;;;;;1563318;27;83928;-69
2022/04/10 12:44:21;;;;;;;;;1.00;1.00;;;;;;;;1560552;27;83899;-69
2022/04/10 12:45:11;;;;;;;;;0.60;0.60;;;;;;;;1560363;28;84033;-69
2022/04/10 12:46:07;;;;;;;;;0.00;0.00;;;;;;;;1560408;27;83855;-70
2022/04/10 12:46:53;;;;;;;;;0.00;0.00;;;;;;;;1560205;27;83868;-70
2022/04/10 12:47:41;;;;;;;;;0.00;0.00;;;;;;;;1562527;27;82933;-70
2022/04/10 12:48:29;;;;;;;;;0.00;0.00;;;;;;;;1565297;27;84060;-69
2022/04/10 12:49:15;;;;;;;;;0.00;0.00;;;;;;;;1565648;27;84544;-69
2022/04/10 12:50:05;;;;;;;;;0.00;0.00;;;;;;;;1566540;27;83971;-69
2022/04/10 12:51:07;;;;;;;;;1.00;1.00;;;;;;;;1566603;27;84254;-69
2022/04/10 12:52:00;;;;;;;;;0.60;0.60;;;;;;;;1566548;27;84026;-70
2022/04/10 12:52:46;;;;;;;;;0.20;0.20;;;;;;;;1566257;27;84087;-69
2022/04/10 12:53:31;;;;;;;;;0.20;0.20;;;;;;;;1566670;27;83948;-69
2022/04/10 12:54:16;;;;;;;;;1.00;1.00;;;;;;;;1569489;27;83323;-70
2022/04/10 12:55:02;;;;;;;;;1.00;1.00;;;;;;;;1566517;27;83461;-70
2022/04/10 12:55:47;;;;;;;;;0.25;0.25;;;;;;;;1566662;27;83212;-69
2022/04/10 12:56:32;;;;;;;;;0.00;0.00;;;;;;;;1566650;27;83366;-69
2022/04/10 12:57:25;;;;;;;;;0.00;0.00;;;;;;;;1566709;27;83410;-70
2022/04/10 12:58:11;;;;;;;;;0.00;0.00;;;;;;;;1565071;27;83496;-68
2022/04/10 12:58:56;;;;;;;;;0.00;0.00;;;;;;;;1560323;27;83483;-68
2022/04/10 12:59:44;;;;;;;;;0.00;0.00;;;;;;;;1560313;27;83125;-68
2022/04/10 13:00:30;;;;;;;;;0.00;0.00;;;;;;;;1560537;28;83136;-68
2022/04/10 13:01:25;;;;;;;;;1.00;1.00;;;;;;;;1560377;27;83397;-68
2022/04/10 13:02:21;;;;;;;;;0.60;0.60;;;;;;;;1560311;28;83487;-68
2022/04/10 13:03:18;;;;;;;;;1.00;1.00;;;;;;;;1559823;27;83439;-68
2022/04/10 13:04:04;;;;;;;;;0.00;0.00;;;;;;;;1565238;27;83472;-68
2022/04/10 13:04:58;;;;;;;;;1.00;1.00;;;;;;;;1566595;27;83066;-68
2022/04/10 13:06:02;;;;;;;;;1.00;1.00;;;;;;;;1566618;27;83217;-69
2022/04/10 13:06:49;;;;;;;;;0.00;0.00;;;;;;;;1566690;27;83307;-68
2022/04/10 13:07:34;;;;;;;;;0.20;0.20;;;;;;;;1566368;27;83220;-68
2022/04/10 13:08:22;;;;;;;;;0.00;0.00;;;;;;;;1566701;27;83366;-68
2022/04/10 13:09:13;;;;;;;;;0.00;0.00;;;;;;;;1566579;27;83407;-68
2022/04/10 13:10:01;;;;;;;;;0.80;0.80;;;;;;;;1566529;27;83430;-68
2022/04/10 13:10:50;;;;;;;;;0.00;0.00;;;;;;;;1566453;27;83360;-69
2022/04/10 13:11:37;;;;;;;;;0.00;0.00;;;;;;;;1566574;27;83276;-68
2022/04/10 13:12:25;;;;;;;;;0.00;0.00;;;;;;;;1566613;27;83381;-68
2022/04/10 13:13:10;;;;;;;;;0.00;0.00;;;;;;;;1563964;27;83354;-68
2022/04/10 13:14:00;;;;;;;;;0.00;0.00;;;;;;;;1566555;27;83249;-68
2022/04/10 13:14:50;;;;;;;;;0.00;0.00;;;;;;;;1566522;27;83265;-68
2022/04/10 13:15:36;;;;;;;;;1.00;1.00;;;;;;;;1566557;27;83436;-69
2022/04/10 13:16:31;;;;;;;;;0.00;0.00;;;;;;;;1566234;27;83322;-68
2022/04/10 13:17:17;;;;;;;;;0.20;0.20;;;;;;;;1569227;27;83907;-68
2022/04/10 13:18:06;;;;;;;;;0.00;0.00;;;;;;;;1565256;27;83606;-68
2022/04/10 13:18:52;;;;;;;;;0.00;0.00;;;;;;;;1566284;27;83504;-69
2022/04/10 13:19:38;;;;;;;;;0.00;0.00;;;;;;;;1566520;27;83381;-68
2022/04/10 13:20:23;;;;;;;;;0.80;0.80;;;;;;;;1566660;27;83431;-69
2022/04/10 13:21:09;;;;;;;;;0.00;0.00;;;;;;;;1566509;27;83538;-68
2022/04/10 13:21:54;;;;;;;;;1.00;1.00;;;;;;;;1566069;27;83329;-68
2022/04/10 13:22:41;;;;;;;;;0.00;0.00;;;;;;;;1566378;27;83646;-68
2022/04/10 13:23:26;;;;;;;;;0.00;0.00;;;;;;;;1566668;27;83545;-68
2022/04/10 13:24:12;;;;;;;;;0.00;0.00;;;;;;;;1566480;27;83687;-68
2022/04/10 13:24:57;;;;;;;;;0.00;0.00;;;;;;;;1566604;27;83409;-68
2022/04/10 13:25:44;;;;;;;;;0.00;0.00;;;;;;;;1566556;27;83321;-69
2022/04/10 13:26:30;;;;;;;;;0.00;0.00;;;;;;;;1566731;27;83414;-68
2022/04/10 13:27:17;;;;;;;;;0.00;0.00;;;;;;;;1566459;27;83286;-68
2022/04/10 13:28:03;;;;;;;;;0.00;0.00;;;;;;;;1562631;27;83639;-69
2022/04/10 13:28:48;;;;;;;;;0.00;0.00;;;;;;;;1560227;28;83205;-69
2022/04/10 13:29:33;;;;;;;;;0.00;0.00;;;;;;;;1561227;27;83424;-68
2022/04/10 13:30:19;;;;;;;;;0.00;0.00;;;;;;;;1561409;27;83468;-68
2022/04/10 13:31:04;;;;;;;;;0.00;0.00;;;;;;;;1561226;28;83557;-69